createdAt,value
2019-01-29T00:01:58.263Z,90.82
2019-01-29T00:04:24.675Z,91.39
2019-01-29T00:06:50.925Z,91.62
2019-01-29T00:09:17.339Z,92.10
2019-01-29T00:11:43.726Z,92.19
2019-01-29T00:14:10.473Z,92.06
2019-01-29T00:16:37.050Z,91.55
2019-01-29T00:19:03.618Z,90.60
2019-01-29T00:21:30.355Z,90.40
2019-01-29T00:23:56.897Z,89.93
2019-01-29T00:26:24.188Z,90.00
2019-01-29T00:28:50.939Z,90.48
2019-01-29T00:31:17.603Z,90.94
2019-01-29T00:33:43.997Z,91.71
2019-01-29T00:36:10.669Z,91.42
2019-01-29T00:38:37.275Z,92.27
2019-01-29T00:41:04.022Z,93.04
2019-01-29T00:43:30.527Z,93.32
2019-01-29T00:46:03.008Z,93.22
2019-01-29T00:48:29.740Z,93.20
2019-01-29T00:50:56.494Z,93.44
2019-01-29T00:53:22.970Z,93.72
2019-01-29T00:55:49.577Z,93.83
2019-01-29T00:58:16.042Z,93.82
2019-01-29T01:00:42.406Z,93.80
2019-01-29T01:03:08.812Z,93.62
2019-01-29T01:05:35.252Z,93.74
2019-01-29T01:08:01.957Z,93.57
2019-01-29T01:10:28.828Z,93.62
2019-01-29T01:12:55.438Z,93.41
2019-01-29T01:15:22.414Z,93.33
2019-01-29T01:17:49.118Z,92.88
2019-01-29T01:20:17.347Z,92.85
2019-01-29T01:22:50.791Z,91.94
2019-01-29T01:25:13.718Z,91.56
2019-01-29T01:27:40.154Z,91.17
2019-01-29T01:30:12.813Z,89.52
2019-01-29T01:32:39.665Z,88.49
2019-01-29T01:35:06.503Z,87.81
2019-01-29T01:37:33.177Z,86.96
2019-01-29T01:39:59.675Z,86.71
2019-01-29T01:42:26.734Z,86.18
2019-01-29T01:44:53.343Z,86.37
2019-01-29T01:47:20.219Z,85.27
2019-01-29T01:49:46.826Z,85.39
2019-01-29T01:52:13.673Z,84.26
2019-01-29T01:54:40.457Z,84.65
2019-01-29T01:57:06.777Z,84.12
2019-01-29T01:59:33.282Z,84.38
2019-01-29T02:02:00.157Z,83.86
2019-01-29T02:04:26.982Z,84.16
2019-01-29T02:06:53.997Z,84.66
2019-01-29T02:09:20.673Z,82.85
2019-01-29T02:11:48.000Z,83.15
2019-01-29T02:14:14.799Z,82.97
2019-01-29T02:16:41.538Z,83.81
2019-01-29T02:19:08.081Z,84.05
2019-01-29T02:21:34.503Z,83.54
2019-01-29T02:24:01.018Z,83.20
2019-01-29T02:26:27.749Z,82.76
2019-01-29T02:28:54.590Z,82.71
2019-01-29T02:31:21.537Z,82.23
2019-01-29T02:33:48.163Z,83.25
2019-01-29T02:36:14.903Z,83.55
2019-01-29T02:38:41.596Z,83.24
2019-01-29T02:41:08.251Z,82.38
2019-01-29T02:43:35.126Z,82.51
2019-01-29T02:46:09.955Z,82.66
2019-01-29T02:48:40.275Z,82.98
2019-01-29T02:51:44.340Z,83.09
2019-01-29T02:55:07.453Z,82.57
2019-01-29T03:01:34.130Z,82.63
2019-01-29T03:08:00.023Z,82.28
2019-01-29T03:13:11.084Z,82.78
2019-01-29T03:15:37.679Z,81.94
2019-01-29T03:18:04.661Z,81.54
2019-01-29T03:20:30.904Z,81.97
2019-01-29T03:22:57.256Z,81.03
2019-01-29T03:25:23.767Z,80.95
2019-01-29T03:27:50.460Z,81.01
2019-01-29T03:30:21.447Z,81.02
2019-01-29T03:32:48.377Z,81.15
2019-01-29T03:35:28.007Z,80.90
2019-01-29T03:38:02.175Z,80.69
2019-01-29T03:40:29.278Z,81.15
2019-01-29T03:42:56.132Z,80.45
2019-01-29T03:45:23.171Z,80.46
2019-01-29T03:47:49.909Z,80.12
2019-01-29T03:50:18.341Z,80.17
2019-01-29T03:52:44.954Z,80.28
2019-01-29T03:55:11.782Z,79.45
2019-01-29T03:57:38.642Z,79.03
2019-01-29T04:00:20.643Z,79.08
2019-01-29T04:02:47.557Z,78.79
2019-01-29T04:05:14.426Z,78.74
2019-01-29T04:07:43.945Z,78.59
2019-01-29T04:10:15.597Z,78.71
2019-01-29T04:12:43.065Z,78.42
2019-01-29T04:15:12.526Z,78.68
2019-01-29T04:17:39.905Z,78.48
2019-01-29T04:20:10.513Z,78.32
2019-01-29T04:22:37.096Z,78.10
2019-01-29T04:25:04.747Z,78.31
2019-01-29T04:27:32.070Z,77.97
2019-01-29T04:29:58.810Z,77.31
2019-01-29T04:32:25.477Z,77.97
2019-01-29T04:34:52.202Z,78.49
2019-01-29T04:37:18.936Z,78.70
2019-01-29T04:39:45.559Z,79.35
2019-01-29T04:42:12.058Z,80.17
2019-01-29T04:44:38.671Z,88.91
2019-01-29T04:47:05.683Z,82.05
2019-01-29T04:49:32.255Z,76.16
2019-01-29T04:51:58.980Z,78.34
2019-01-29T04:54:25.919Z,79.87
2019-01-29T04:56:53.164Z,80.51
2019-01-29T04:59:19.493Z,81.26
2019-01-29T05:01:46.240Z,81.25
2019-01-29T05:04:12.872Z,82.05
2019-01-29T05:06:39.538Z,82.45
2019-01-29T05:09:07.453Z,83.57
2019-01-29T05:11:34.451Z,84.47
2019-01-29T05:14:01.496Z,84.58
2019-01-29T05:16:28.186Z,84.96
2019-01-29T05:18:54.622Z,85.12
2019-01-29T05:21:21.362Z,85.16
2019-01-29T05:23:47.719Z,85.46
2019-01-29T05:26:14.389Z,84.94
2019-01-29T05:28:41.227Z,85.39
2019-01-29T05:31:07.891Z,85.85
2019-01-29T05:33:34.779Z,86.08
2019-01-29T05:36:01.646Z,86.10
2019-01-29T05:38:28.750Z,85.79
2019-01-29T05:40:55.623Z,85.88
2019-01-29T05:43:22.637Z,85.99
2019-01-29T05:45:49.480Z,86.04
2019-01-29T05:48:17.393Z,85.66
2019-01-29T05:50:44.220Z,85.25
2019-01-29T05:53:10.726Z,84.64
2019-01-29T05:55:37.395Z,85.25
2019-01-29T05:58:03.933Z,85.06
2019-01-29T06:00:32.224Z,84.44
2019-01-29T06:02:58.736Z,84.66
2019-01-29T06:05:25.486Z,84.56
2019-01-29T06:07:52.414Z,84.61
2019-01-29T06:10:18.927Z,84.66
2019-01-29T06:12:45.716Z,84.46
2019-01-29T06:15:18.047Z,84.87
2019-01-29T06:17:44.811Z,84.60
2019-01-29T06:20:36.580Z,84.54
2019-01-29T06:23:03.430Z,84.34
2019-01-29T06:25:30.633Z,84.54
2019-01-29T06:27:57.330Z,84.11
2019-01-29T06:30:25.388Z,84.41
2019-01-29T06:32:51.993Z,84.18
2019-01-29T06:35:18.810Z,84.61
2019-01-29T06:37:46.488Z,87.13
2019-01-29T06:40:16.094Z,87.83
2019-01-29T06:42:43.020Z,86.75
2019-01-29T06:45:12.479Z,85.82
2019-01-29T06:47:39.379Z,85.59
2019-01-29T06:50:12.038Z,86.48
2019-01-29T06:52:38.854Z,86.55
2019-01-29T06:55:09.373Z,86.98
2019-01-29T06:57:36.442Z,86.33
2019-01-29T07:00:06.942Z,87.62
2019-01-29T07:02:36.893Z,87.49
2019-01-29T07:05:05.946Z,87.88
2019-01-29T07:07:32.653Z,87.71
2019-01-29T07:10:00.926Z,88.07
2019-01-29T07:12:27.435Z,87.75
2019-01-29T07:14:54.246Z,87.83
2019-01-29T07:17:23.027Z,88.27
2019-01-29T07:19:49.821Z,88.36
2019-01-29T07:22:17.143Z,89.10
2019-01-29T07:24:44.122Z,88.85
2019-01-29T07:27:11.167Z,89.07
2019-01-29T07:29:38.328Z,89.30
2019-01-29T07:32:05.669Z,89.47
2019-01-29T07:34:32.499Z,89.53
2019-01-29T07:36:59.469Z,89.66
2019-01-29T07:39:26.258Z,89.74
2019-01-29T07:41:53.102Z,89.81
2019-01-29T07:44:19.690Z,90.00
2019-01-29T07:46:46.578Z,90.26
2019-01-29T07:49:13.206Z,90.13
2019-01-29T07:51:39.674Z,90.83
2019-01-29T07:54:06.289Z,91.00
2019-01-29T07:56:33.184Z,91.03
2019-01-29T07:58:59.570Z,91.58
2019-01-29T08:01:26.112Z,91.63
2019-01-29T08:03:52.542Z,91.93
2019-01-29T08:06:19.195Z,92.27
2019-01-29T08:08:45.813Z,92.72
2019-01-29T08:11:12.977Z,92.37
2019-01-29T08:13:39.539Z,92.60
2019-01-29T08:16:06.152Z,92.69
2019-01-29T08:18:32.802Z,92.62
2019-01-29T08:20:59.752Z,92.11
2019-01-29T08:23:26.489Z,92.34
2019-01-29T08:25:53.155Z,92.42
2019-01-29T08:28:20.077Z,91.65
2019-01-29T08:30:46.497Z,91.77
2019-01-29T08:33:13.637Z,91.95
2019-01-29T08:35:41.593Z,91.69
2019-01-29T08:38:08.655Z,92.00
2019-01-29T08:40:35.516Z,91.93
2019-01-29T08:43:02.135Z,91.81
2019-01-29T08:45:28.998Z,91.76
2019-01-29T08:47:55.329Z,92.02
2019-01-29T08:50:25.738Z,91.23
2019-01-29T08:52:52.286Z,91.17
2019-01-29T08:55:19.279Z,91.61
2019-01-29T08:57:45.864Z,91.92
2019-01-29T09:00:17.929Z,91.98
2019-01-29T09:02:44.420Z,91.87
2019-01-29T09:05:30.470Z,91.52
2019-01-29T09:08:00.879Z,91.66
2019-01-29T09:10:28.690Z,90.91
2019-01-29T09:13:00.398Z,90.68
2019-01-29T09:15:27.073Z,90.65
2019-01-29T09:17:53.697Z,91.00
2019-01-29T09:20:21.482Z,90.58
2019-01-29T09:22:48.401Z,90.10
2019-01-29T09:25:21.027Z,89.15
2019-01-29T09:27:43.211Z,89.27
2019-01-29T09:30:19.995Z,88.55
2019-01-29T09:32:46.527Z,88.68
2019-01-29T09:35:13.314Z,89.39
2019-01-29T09:37:39.899Z,89.81
2019-01-29T09:40:10.117Z,89.53
2019-01-29T09:42:36.648Z,89.04
2019-01-29T09:45:05.281Z,88.97
2019-01-29T09:47:31.893Z,89.04
2019-01-29T09:49:58.427Z,89.17
2019-01-29T09:52:25.099Z,88.90
2019-01-29T09:54:51.621Z,88.16
2019-01-29T09:57:18.246Z,88.01
2019-01-29T09:59:44.754Z,87.76
2019-01-29T10:02:11.314Z,88.27
2019-01-29T10:04:37.908Z,88.23
2019-01-29T10:07:04.550Z,87.86
2019-01-29T10:09:31.273Z,87.20
2019-01-29T10:11:57.984Z,86.93
2019-01-29T10:14:24.554Z,87.14
2019-01-29T10:16:51.047Z,87.35
2019-01-29T10:19:17.795Z,87.03
2019-01-29T10:21:44.644Z,86.51
2019-01-29T10:24:10.952Z,86.93
2019-01-29T10:26:37.393Z,86.82
2019-01-29T10:29:03.790Z,86.32
2019-01-29T10:31:30.523Z,86.30
2019-01-29T10:33:57.293Z,86.41
2019-01-29T10:36:23.932Z,86.11
2019-01-29T10:38:50.565Z,86.04
2019-01-29T10:41:17.216Z,85.35
2019-01-29T10:43:44.493Z,85.92
2019-01-29T10:46:11.004Z,85.50
2019-01-29T10:48:37.673Z,85.06
2019-01-29T10:51:04.250Z,85.34
2019-01-29T10:53:30.618Z,85.20
2019-01-29T10:55:57.296Z,84.97
2019-01-29T10:58:23.860Z,85.46
2019-01-29T11:00:50.227Z,85.06
2019-01-29T11:03:19.663Z,85.11
2019-01-29T11:05:46.193Z,84.60
2019-01-29T11:08:12.755Z,83.79
2019-01-29T11:10:39.443Z,84.02
2019-01-29T11:13:07.308Z,84.02
2019-01-29T11:15:37.256Z,84.15
2019-01-29T11:18:07.399Z,83.63
2019-01-29T11:20:33.721Z,84.23
2019-01-29T11:23:00.092Z,83.73
2019-01-29T11:25:28.855Z,83.64
2019-01-29T11:27:55.392Z,85.15
2019-01-29T11:30:25.179Z,84.20
2019-01-29T11:32:52.014Z,85.05
2019-01-29T11:35:18.423Z,83.62
2019-01-29T11:37:44.747Z,83.76
2019-01-29T11:40:14.860Z,83.53
2019-01-29T11:42:41.550Z,82.92
2019-01-29T11:45:11.697Z,82.36
2019-01-29T11:47:38.415Z,83.47
2019-01-29T11:50:07.910Z,82.62
2019-01-29T11:52:34.409Z,82.09
2019-01-29T11:55:01.222Z,82.55
2019-01-29T11:57:27.859Z,82.92
2019-01-29T11:59:54.609Z,82.75
2019-01-29T12:02:28.228Z,81.51
2019-01-29T12:04:49.851Z,82.34
2019-01-29T12:07:16.699Z,82.05
2019-01-29T12:09:43.399Z,81.92
2019-01-29T12:12:09.837Z,82.14
2019-01-29T12:14:36.655Z,81.86
2019-01-29T12:17:03.308Z,81.53
2019-01-29T12:19:29.820Z,81.66
2019-01-29T12:21:56.416Z,82.42
2019-01-29T12:24:23.107Z,82.92
2019-01-29T12:26:49.758Z,82.86
2019-01-29T12:29:16.305Z,82.84
2019-01-29T12:31:42.849Z,82.76
2019-01-29T12:34:09.506Z,83.69
2019-01-29T12:36:36.137Z,82.72
2019-01-29T12:39:05.779Z,83.42
2019-01-29T12:41:32.261Z,83.53
2019-01-29T12:44:02.352Z,83.70
2019-01-29T12:46:28.913Z,84.27
2019-01-29T12:48:55.511Z,85.08
2019-01-29T12:51:24.052Z,84.31
2019-01-29T12:53:50.656Z,83.15
2019-01-29T12:56:21.519Z,82.90
2019-01-29T12:58:45.413Z,82.95
2019-01-29T13:01:11.952Z,82.01
2019-01-29T13:03:38.462Z,82.28
2019-01-29T13:06:05.205Z,82.12
2019-01-29T13:08:31.609Z,82.94
2019-01-29T13:10:57.877Z,83.75
2019-01-29T13:13:24.764Z,84.42
2019-01-29T13:15:51.235Z,84.81
2019-01-29T13:18:17.636Z,84.18
2019-01-29T13:20:43.937Z,85.26
2019-01-29T13:23:10.623Z,85.79
2019-01-29T13:25:37.724Z,85.81
2019-01-29T13:28:04.325Z,85.86
2019-01-29T13:30:33.799Z,85.64
2019-01-29T13:33:00.584Z,85.26
2019-01-29T13:35:29.977Z,84.10
2019-01-29T13:37:56.495Z,85.32
2019-01-29T13:40:23.183Z,84.95
2019-01-29T13:42:50.047Z,85.43
2019-01-29T13:45:17.080Z,85.27
2019-01-29T13:47:43.686Z,85.46
2019-01-29T13:50:19.704Z,85.01
2019-01-29T13:52:46.179Z,83.30
2019-01-29T13:55:14.902Z,83.80
2019-01-29T13:57:41.947Z,83.99
2019-01-29T14:00:20.444Z,83.43
2019-01-29T14:02:46.952Z,83.33
2019-01-29T14:05:13.554Z,83.60
2019-01-29T14:07:40.257Z,83.46
2019-01-29T14:10:10.927Z,83.92
2019-01-29T14:12:37.439Z,83.91
2019-01-29T14:15:07.018Z,83.93
2019-01-29T14:17:33.512Z,83.65
2019-01-29T14:19:59.964Z,83.58
2019-01-29T14:22:26.648Z,83.37
2019-01-29T14:24:52.958Z,83.95
2019-01-29T14:27:19.544Z,83.93
2019-01-29T14:29:46.277Z,83.55
2019-01-29T14:32:12.849Z,84.07
2019-01-29T14:34:39.273Z,84.24
2019-01-29T14:37:05.603Z,83.89
2019-01-29T14:39:36.021Z,83.98
2019-01-29T14:42:02.576Z,83.82
2019-01-29T14:44:29.036Z,84.23
2019-01-29T14:46:55.316Z,84.68
2019-01-29T14:49:21.707Z,84.48
2019-01-29T14:51:47.957Z,84.75
2019-01-29T14:54:14.346Z,84.79
2019-01-29T14:56:40.633Z,84.85
2019-01-29T14:59:07.022Z,84.44
2019-01-29T15:01:33.529Z,84.22
2019-01-29T15:03:59.940Z,84.82
2019-01-29T15:06:32.251Z,85.26
2019-01-29T15:08:54.606Z,85.16
2019-01-29T15:11:21.044Z,85.04
2019-01-29T15:13:47.437Z,85.13
2019-01-29T15:16:16.993Z,85.39
2019-01-29T15:18:45.397Z,85.51
2019-01-29T15:21:11.701Z,85.72
2019-01-29T15:23:38.106Z,85.74
2019-01-29T15:26:04.654Z,86.04
2019-01-29T15:28:31.121Z,85.59
2019-01-29T15:30:58.254Z,85.58
2019-01-29T15:33:24.968Z,85.20
2019-01-29T15:35:51.616Z,85.93
2019-01-29T15:38:18.355Z,86.41
2019-01-29T15:40:44.918Z,85.98
2019-01-29T15:43:11.594Z,86.08
2019-01-29T15:45:38.442Z,86.74
2019-01-29T15:48:05.016Z,86.17
2019-01-29T15:50:35.311Z,86.95
2019-01-29T15:53:01.903Z,86.40
2019-01-29T15:55:28.249Z,86.21
2019-01-29T15:57:55.081Z,86.53
2019-01-29T16:00:24.806Z,86.34
2019-01-29T16:02:51.386Z,85.53
2019-01-29T16:05:27.889Z,86.33
2019-01-29T16:07:55.024Z,86.11
2019-01-29T16:10:46.847Z,85.31
2019-01-29T16:13:13.710Z,85.59
2019-01-29T16:15:41.154Z,85.69
2019-01-29T16:18:08.084Z,85.93
2019-01-29T16:20:34.752Z,85.82
2019-01-29T16:23:01.085Z,86.30
2019-01-29T16:25:29.388Z,86.33
2019-01-29T16:27:55.647Z,87.01
2019-01-29T16:30:25.937Z,86.49
2019-01-29T16:32:52.644Z,86.04
2019-01-29T16:35:22.564Z,85.85
2019-01-29T16:37:49.034Z,86.30
2019-01-29T16:40:18.939Z,86.30
2019-01-29T16:42:45.642Z,87.03
2019-01-29T16:45:24.939Z,87.02
2019-01-29T16:47:52.394Z,87.31
2019-01-29T16:50:21.254Z,87.13
2019-01-29T16:52:47.807Z,87.17
2019-01-29T16:55:16.596Z,87.13
2019-01-29T16:57:43.926Z,87.38
2019-01-29T17:00:22.995Z,86.92
2019-01-29T17:02:49.874Z,87.20
2019-01-29T17:05:16.433Z,87.59
2019-01-29T17:07:43.401Z,87.17
2019-01-29T17:10:13.444Z,87.08
2019-01-29T17:12:40.161Z,87.46
2019-01-29T17:15:10.777Z,87.81
2019-01-29T17:17:37.596Z,88.06
2019-01-29T17:20:14.435Z,88.02
2019-01-29T17:22:41.574Z,87.68
2019-01-29T17:25:07.846Z,87.52
2019-01-29T17:27:40.153Z,88.17
2019-01-29T17:30:06.786Z,88.45
2019-01-29T17:32:33.211Z,88.94
2019-01-29T17:34:59.682Z,88.53
2019-01-29T17:37:26.286Z,88.77
2019-01-29T17:39:53.024Z,89.18
2019-01-29T17:42:27.477Z,88.64
2019-01-29T17:44:53.820Z,89.42
2019-01-29T17:47:20.339Z,89.31
2019-01-29T17:49:47.343Z,89.83
2019-01-29T17:52:13.910Z,89.96
2019-01-29T17:57:51.652Z,89.66
2019-01-29T18:00:23.468Z,89.96
2019-01-29T18:02:52.266Z,89.76
2019-01-29T18:08:54.425Z,89.84
2019-01-29T18:11:20.623Z,89.78
2019-01-29T18:13:48.077Z,89.83
2019-01-29T18:16:14.722Z,89.74
2019-01-29T18:18:41.843Z,89.81
2019-01-29T18:21:08.556Z,89.86
2019-01-29T18:23:35.342Z,89.65
2019-01-29T18:29:26.037Z,89.69
2019-01-29T18:31:52.960Z,89.94
2019-01-29T18:34:25.873Z,89.96
2019-01-29T18:36:55.982Z,90.07
2019-01-29T18:39:22.731Z,90.10
2019-01-29T18:41:49.232Z,89.91
2019-01-29T18:44:15.651Z,89.93
2019-01-29T18:49:53.391Z,90.07
2019-01-29T18:52:19.931Z,89.65
2019-01-29T18:54:46.434Z,90.05
2019-01-29T19:00:37.422Z,90.55
2019-01-29T19:03:04.212Z,90.50
2019-01-29T19:05:30.568Z,90.10
2019-01-29T19:07:57.059Z,90.36
2019-01-29T19:13:58.968Z,89.53
2019-01-29T19:19:49.437Z,89.29
2019-01-29T19:25:17.216Z,89.77
2019-01-29T19:27:43.759Z,89.78
2019-01-29T19:33:34.455Z,89.81
2019-01-29T19:36:01.157Z,90.08
2019-01-29T19:38:28.589Z,89.97
2019-01-29T19:40:55.611Z,89.80
2019-01-29T19:43:22.293Z,90.16
2019-01-29T19:45:49.019Z,90.06
2019-01-29T19:48:15.662Z,89.86
2019-01-29T19:50:42.152Z,89.57
2019-01-29T19:53:08.565Z,89.46
2019-01-29T19:55:35.148Z,89.37
2019-01-29T19:58:08.653Z,89.12
2019-01-29T20:04:05.517Z,89.90
2019-01-29T20:06:32.088Z,89.91
2019-01-29T20:08:58.396Z,89.79
2019-01-29T20:11:25.099Z,89.91
2019-01-29T20:13:51.685Z,89.93
2019-01-29T20:16:18.188Z,89.31
2019-01-29T20:18:44.836Z,89.46
2019-01-29T20:24:46.824Z,90.87
2019-01-29T20:27:13.624Z,90.92
2019-01-29T20:29:40.040Z,91.23
2019-01-29T20:32:06.581Z,91.26
2019-01-29T20:34:33.415Z,91.79
2019-01-29T20:36:59.885Z,91.43
2019-01-29T20:39:34.734Z,91.76
2019-01-29T20:41:55.337Z,92.13
2019-01-29T20:44:22.101Z,92.19
2019-01-29T20:46:48.805Z,92.24
2019-01-29T20:49:15.455Z,92.52
2019-01-29T20:51:41.895Z,92.28
2019-01-29T20:54:08.443Z,92.50
2019-01-29T20:56:34.834Z,92.61
2019-01-29T20:59:01.409Z,92.58
2019-01-29T21:01:28.139Z,92.55
2019-01-29T21:03:54.533Z,92.54
2019-01-29T21:06:21.023Z,92.09
2019-01-29T21:08:47.537Z,92.35
2019-01-29T21:11:14.041Z,92.12
2019-01-29T21:13:40.625Z,92.19
2019-01-29T21:16:07.094Z,92.55
2019-01-29T21:18:33.547Z,93.05
2019-01-29T21:21:00.151Z,92.83
2019-01-29T21:26:37.737Z,92.55
2019-01-29T21:29:04.749Z,92.87
2019-01-29T21:31:31.165Z,92.70
2019-01-29T21:33:57.701Z,92.55
2019-01-29T21:36:24.261Z,92.67
2019-01-29T21:38:50.723Z,93.09
2019-01-29T21:41:17.185Z,94.38
2019-01-29T21:43:43.607Z,94.99
2019-01-29T21:46:10.142Z,94.29
2019-01-29T21:48:36.454Z,93.42
2019-01-29T21:51:03.123Z,92.65
2019-01-29T21:53:29.715Z,92.29
2019-01-29T21:55:56.254Z,92.26
2019-01-29T21:58:22.975Z,93.03
2019-01-29T22:00:50.361Z,93.40
2019-01-29T22:03:16.999Z,93.15
2019-01-29T22:05:43.533Z,93.44
2019-01-29T22:08:10.183Z,93.74
2019-01-29T22:10:36.476Z,93.64
2019-01-29T22:13:04.203Z,92.82
2019-01-29T22:15:30.527Z,93.12
2019-01-29T22:17:56.862Z,93.86
2019-01-29T22:20:28.997Z,93.77
2019-01-29T22:22:55.566Z,93.70
2019-01-29T22:25:23.120Z,93.77
2019-01-29T22:27:49.648Z,93.94
2019-01-29T22:30:25.747Z,93.85
2019-01-29T22:32:52.321Z,94.50
2019-01-29T22:35:19.038Z,94.64
2019-01-29T22:37:45.388Z,94.67
2019-01-29T22:40:23.034Z,94.73
2019-01-29T22:42:49.610Z,94.67
2019-01-29T22:45:17.067Z,94.63
2019-01-29T22:47:44.430Z,94.72
2019-01-29T22:50:19.875Z,94.97
2019-01-29T22:52:47.078Z,94.75
2019-01-29T22:55:13.985Z,94.74
2019-01-29T22:57:40.551Z,94.80
2019-01-29T23:00:15.947Z,94.89
2019-01-29T23:02:42.485Z,94.32
2019-01-29T23:05:09.178Z,94.24
2019-01-29T23:07:36.266Z,94.12
2019-01-29T23:12:43.230Z,94.28
2019-01-29T23:15:17.426Z,94.35
2019-01-29T23:17:44.700Z,94.14
2019-01-29T23:20:14.198Z,94.30
2019-01-29T23:22:40.804Z,94.96
2019-01-29T23:25:08.944Z,95.27
2019-01-29T23:27:35.452Z,94.66
2019-01-29T23:30:03.765Z,94.53
2019-01-29T23:32:30.372Z,94.64
2019-01-29T23:34:56.675Z,94.51
2019-01-29T23:37:22.934Z,94.44
2019-01-29T23:39:49.363Z,94.96
2019-01-29T23:42:15.849Z,95.28
2019-01-29T23:44:42.473Z,95.81
2019-01-29T23:47:09.199Z,96.02
2019-01-29T23:49:35.788Z,96.20
2019-01-29T23:52:02.317Z,96.58
2019-01-29T23:54:28.831Z,96.96
2019-01-29T23:56:55.351Z,97.01
2019-01-29T23:59:22.095Z,96.81
